Time;durP1;ratioP1;P1;durP2;ratioP2;P2;SDS_P1;SDS_P2;PMS_P1;PMS_P2;Temp;Humidity;BMP_temperature;BMP_pressure;BME280_temperature;BME280_humidity;BME280_pressure;Samples;Min_cycle;Max_cycle;Signal;HPM_P1;HPM_P2
2023/02/07 00:03:39;;;;;;;3.47;1.85;;;2.30;98.30;;;;;;20542610;28;20050;-43
2023/02/07 00:13:41;;;;;;;10.77;4.03;;;2.10;99.90;;;;;;20539776;28;20061;-43
2023/02/07 00:23:44;;;;;;;9.63;3.55;;;2.00;99.90;;;;;;20540730;28;20043;-43
2023/02/07 00:33:46;;;;;;;3.42;1.85;;;2.00;99.10;;;;;;20537464;28;20042;-43
2023/02/07 00:43:47;;;;;;;6.13;2.22;;;1.90;99.90;;;;;;20537238;28;20043;-43
2023/02/07 00:53:48;;;;;;;4.35;2.47;;;1.90;99.90;;;;;;20533757;28;20031;-43
2023/02/07 01:03:50;;;;;;;3.55;1.98;;;1.90;97.20;;;;;;20543205;28;20046;-43
2023/02/07 01:13:51;;;;;;;5.38;2.50;;;1.80;99.90;;;;;;20541419;28;20039;-43
2023/02/07 01:23:55;;;;;;;3.25;1.90;;;1.80;99.90;;;;;;20538906;28;20046;-43
2023/02/07 01:33:58;;;;;;;6.13;2.38;;;1.70;99.90;;;;;;20547824;28;20046;-43
2023/02/07 01:44:04;;;;;;;5.28;2.35;;;1.60;99.90;;;;;;20548431;28;20255;-43
2023/02/07 01:54:08;;;;;;;3.70;2.22;;;1.60;99.90;;;;;;20557836;28;20483;-42
2023/02/07 02:04:09;;;;;;;4.68;2.90;;;1.60;99.90;;;;;;20563294;28;20038;-43
2023/02/07 02:14:35;;;;;;;4.65;1.98;;;1.50;99.90;;;;;;20560245;28;20035;-43
2023/02/07 02:24:59;;;;;;;5.60;2.88;;;1.40;99.90;;;;;;20542774;28;20358;-43
2023/02/07 02:35:32;;;;;;;3.65;1.92;;;1.40;99.90;;;;;;20562851;28;20054;-43
2023/02/07 02:45:52;;;;;;;4.22;2.00;;;1.20;99.90;;;;;;20515110;28;21541;-43
2023/02/07 02:56:05;;;;;;;5.18;3.35;;;1.20;99.90;;;;;;20555769;28;20053;-43
2023/02/07 03:06:40;;;;;;;4.85;2.70;;;1.20;99.90;;;;;;20488998;28;21559;-40
2023/02/07 03:17:11;;;;;;;4.60;2.72;;;1.10;99.90;;;;;;20499263;28;20394;-40
2023/02/07 03:27:15;;;;;;;6.03;3.28;;;0.80;99.90;;;;;;20522012;28;20647;-40
2023/02/07 03:37:23;;;;;;;6.28;3.35;;;0.90;99.90;;;;;;20549927;28;20038;-43
2023/02/07 03:47:26;;;;;;;5.25;2.70;;;0.90;99.90;;;;;;20551037;28;20038;-43
2023/02/07 03:57:27;;;;;;;7.40;3.55;;;0.80;99.90;;;;;;20534213;28;20531;-43
2023/02/07 04:07:29;;;;;;;5.00;2.55;;;0.90;99.90;;;;;;20539685;28;20409;-40
2023/02/07 04:17:30;;;;;;;5.40;2.55;;;0.90;99.90;;;;;;20555041;28;20060;-43
2023/02/07 04:27:31;;;;;;;8.73;3.05;;;0.80;99.90;;;;;;20547043;28;20061;-43
2023/02/07 04:37:32;;;;;;;8.15;2.60;;;0.60;99.90;;;;;;20548688;28;20514;-43
2023/02/07 04:47:34;;;;;;;5.30;3.13;;;0.60;99.90;;;;;;20551660;28;20398;-41
2023/02/07 04:57:35;;;;;;;5.25;2.67;;;0.50;99.90;;;;;;20547342;28;20097;-41
2023/02/07 05:07:36;;;;;;;8.43;6.25;;;0.60;99.90;;;;;;20531833;28;20038;-41
2023/02/07 05:17:37;;;;;;;9.57;5.20;;;0.50;99.90;;;;;;20552177;28;20043;-41
2023/02/07 05:27:38;;;;;;;14.93;6.15;;;0.50;99.90;;;;;;20570168;28;20046;-41
2023/02/07 05:37:39;;;;;;;11.70;5.40;;;0.50;99.90;;;;;;20566743;28;20035;-41
2023/02/07 05:47:40;;;;;;;13.20;6.20;;;0.60;99.90;;;;;;20564969;28;20035;-41
2023/02/07 05:57:43;;;;;;;15.55;6.88;;;0.50;99.90;;;;;;20557724;28;20047;-41
2023/02/07 06:07:44;;;;;;;14.70;6.18;;;0.50;99.90;;;;;;20561433;28;20085;-41
2023/02/07 06:17:46;;;;;;;11.40;5.38;;;0.60;99.90;;;;;;20557534;28;20406;-41
2023/02/07 06:27:47;;;;;;;15.73;8.73;;;0.60;99.90;;;;;;20556271;28;20033;-42
2023/02/07 06:37:48;;;;;;;14.95;6.60;;;0.70;99.90;;;;;;20556286;28;20059;-41
2023/02/07 06:47:49;;;;;;;12.57;7.32;;;0.60;99.90;;;;;;20549780;28;20053;-41
2023/02/07 06:57:50;;;;;;;13.45;6.43;;;0.60;99.90;;;;;;20537086;28;20054;-42
2023/02/07 07:07:51;;;;;;;11.75;6.72;;;0.50;99.90;;;;;;20554172;28;20426;-41
2023/02/07 07:17:52;;;;;;;18.33;6.80;;;0.50;99.90;;;;;;20547716;28;20061;-41
2023/02/07 07:27:53;;;;;;;18.13;7.43;;;0.40;99.90;;;;;;20553171;28;20046;-41
2023/02/07 07:37:54;;;;;;;29.17;8.98;;;0.30;99.90;;;;;;20562059;28;20362;-41
2023/02/07 07:47:55;;;;;;;21.98;8.65;;;0.20;99.90;;;;;;20558881;28;20042;-41
2023/02/07 07:57:56;;;;;;;19.58;8.55;;;0.40;99.90;;;;;;20566631;28;20045;-41
2023/02/07 08:07:57;;;;;;;15.82;9.23;;;0.60;99.90;;;;;;20559028;28;20047;-41
2023/02/07 08:17:58;;;;;;;21.23;10.00;;;0.60;99.90;;;;;;20562691;28;20438;-41
2023/02/07 08:28:01;;;;;;;14.32;8.80;;;0.70;99.90;;;;;;20556685;28;20055;-41
2023/02/07 08:38:02;;;;;;;20.60;8.55;;;0.90;99.90;;;;;;20558711;28;20058;-41
2023/02/07 08:48:03;;;;;;;19.38;8.77;;;1.10;99.90;;;;;;20538641;28;20054;-41
2023/02/07 08:58:04;;;;;;;18.05;8.48;;;1.40;99.90;;;;;;20565499;28;20320;-41
2023/02/07 09:08:05;;;;;;;20.02;7.13;;;1.60;99.90;;;;;;20567392;28;20038;-41
2023/02/07 09:18:06;;;;;;;12.90;6.82;;;1.80;99.90;;;;;;20567470;28;20046;-41
2023/02/07 09:28:07;;;;;;;19.42;7.18;;;2.10;92.30;;;;;;20564126;28;20039;-40
2023/02/07 09:38:12;;;;;;;15.73;8.18;;;2.20;64.10;;;;;;20568622;28;20062;-41
2023/02/07 09:48:19;;;;;;;18.52;6.70;;;2.50;49.60;;;;;;20568180;28;20405;-41
2023/02/07 09:58:35;;;;;;;10.63;5.45;;;2.70;41.20;;;;;;20555420;28;20043;-41
2023/02/07 10:08:36;;;;;;;14.82;7.95;;;2.90;32.90;;;;;;20556752;28;20042;-41
2023/02/07 10:18:46;;;;;;;11.70;5.95;;;3.10;29.00;;;;;;20562244;28;20521;-41
2023/02/07 10:29:28;;;;;;;43.25;21.05;;;3.30;28.10;;;;;;20564819;28;20060;-41
2023/02/07 10:39:40;;;;;;;7.07;4.20;;;3.50;25.10;;;;;;20532504;28;20560;-41
2023/02/07 10:49:45;;;;;;;9.27;5.90;;;3.70;21.20;;;;;;20560962;28;20557;-41
2023/02/07 10:59:48;;;;;;;12.38;6.68;;;4.20;14.20;;;;;;20568882;28;20421;-41
2023/02/07 11:09:49;;;;;;;8.35;5.43;;;4.60;14.60;;;;;;20565417;28;20038;-41
2023/02/07 11:19:50;;;;;;;12.32;6.28;;;4.80;10.30;;;;;;20524947;28;20897;-41
2023/02/07 11:29:55;;;;;;;9.80;5.50;;;5.70;6.10;;;;;;20550454;28;20573;-41
2023/02/07 11:40:20;;;;;;;11.75;4.80;;;6.10;1.90;;;;;;20552763;28;20261;-42
2023/02/07 11:50:24;;;;;;;7.45;3.60;;;6.90;1.00;;;;;;20533652;28;20049;-41
2023/02/07 12:00:29;;;;;;;9.35;3.70;;;7.30;1.00;;;;;;20546564;28;20411;-41
2023/02/07 12:10:34;;;;;;;7.63;3.22;;;7.50;1.00;;;;;;20547743;28;20137;-41
2023/02/07 12:20:45;;;;;;;3.83;2.17;;;7.90;1.00;;;;;;20543158;28;20581;-41
2023/02/07 12:30:51;;;;;;;6.35;2.90;;;8.60;1.00;;;;;;20541722;28;20048;-41
2023/02/07 12:41:14;;;;;;;4.70;2.47;;;8.70;1.00;;;;;;20550128;28;20110;-42
2023/02/07 12:51:42;;;;;;;5.13;2.90;;;9.70;1.00;;;;;;20485109;28;20043;-42
2023/02/07 13:01:45;;;;;;;7.63;2.77;;;9.70;1.00;;;;;;20433500;28;20956;-42
2023/02/07 13:12:37;;;;;;;6.60;2.97;;;9.90;1.00;;;;;;20554295;28;20041;-41
2023/02/07 13:23:01;;;;;;;7.57;3.13;;;10.00;1.00;;;;;;20500886;28;20042;-42
2023/02/07 13:33:31;;;;;;;6.75;2.20;;;10.10;1.00;;;;;;20554172;28;20043;-42
2023/02/07 13:44:01;;;;;;;4.70;3.30;;;10.10;1.00;;;;;;20557080;28;20494;-42
2023/02/07 13:54:39;;;;;;;5.68;2.58;;;10.00;1.00;;;;;;20567931;28;20043;-42
2023/02/07 14:04:55;;;;;;;3.97;2.08;;;10.40;1.00;;;;;;20566815;28;20047;-42
2023/02/07 14:15:33;;;;;;;6.00;2.35;;;9.50;1.00;;;;;;20564290;28;20141;-42
2023/02/07 14:25:34;;;;;;;5.97;2.37;;;8.90;1.00;;;;;;20554484;28;20383;-42
2023/02/07 14:35:43;;;;;;;3.88;2.15;;;8.50;1.00;;;;;;20569532;28;20135;-42
2023/02/07 14:45:50;;;;;;;4.43;1.45;;;7.90;1.00;;;;;;20565709;28;20417;-41
2023/02/07 14:55:58;;;;;;;2.87;1.33;;;8.90;1.00;;;;;;20560547;28;20054;-41
2023/02/07 15:06:01;;;;;;;3.10;1.48;;;9.50;1.00;;;;;;20562738;28;20046;-41
2023/02/07 15:16:11;;;;;;;3.40;1.27;;;9.40;1.00;;;;;;20555095;28;20050;-41
2023/02/07 15:26:18;;;;;;;2.05;0.88;;;8.20;1.00;;;;;;20562082;28;20082;-42
2023/02/07 15:36:34;;;;;;;2.70;1.30;;;8.00;1.00;;;;;;20562242;28;20513;-41
2023/02/07 15:46:52;;;;;;;4.00;1.00;;;7.60;1.00;;;;;;20561162;28;21706;-42
2023/02/07 15:56:59;;;;;;;4.53;2.00;;;7.10;1.00;;;;;;20509704;28;20058;-41
2023/02/07 16:07:03;;;;;;;;;;;6.70;1.00;;;;;;20551496;28;20065;-42
2023/02/07 16:17:04;;;;;;;4.28;2.50;;;6.40;1.00;;;;;;20547359;28;19922;-42
2023/02/07 16:27:05;;;;;;;6.35;2.10;;;6.20;1.00;;;;;;20554935;28;21460;-42
2023/02/07 16:37:06;;;;;;;4.45;2.17;;;6.00;1.00;;;;;;20537690;28;20634;-42
2023/02/07 16:47:12;;;;;;;2.65;1.35;;;5.80;1.00;;;;;;20554996;28;20218;-42
2023/02/07 16:57:14;;;;;;;4.65;2.65;;;5.50;1.00;;;;;;20539121;28;20116;-42
2023/02/07 17:07:15;;;;;;;6.57;2.42;;;5.20;1.00;;;;;;20561819;28;20042;-42
2023/02/07 17:17:16;;;;;;;3.58;2.17;;;5.00;1.00;;;;;;20570697;28;20051;-41
2023/02/07 17:27:17;;;;;;;8.13;3.17;;;4.90;1.00;;;;;;20579065;28;20379;-41
2023/02/07 17:37:19;;;;;;;6.25;3.25;;;4.70;1.00;;;;;;20572246;28;20358;-42
2023/02/07 17:47:22;;;;;;;7.75;4.68;;;4.50;1.00;;;;;;20570960;28;20039;-42
2023/02/07 17:57:23;;;;;;;5.05;2.70;;;4.20;1.00;;;;;;20569753;28;20306;-42
2023/02/07 18:07:25;;;;;;;6.35;3.58;;;3.90;1.00;;;;;;20571720;28;20038;-42
2023/02/07 18:17:26;;;;;;;6.82;3.00;;;3.50;1.00;;;;;;20565304;28;20042;-42
2023/02/07 18:27:27;;;;;;;6.20;2.83;;;3.30;1.00;;;;;;20560241;28;20155;-42
2023/02/07 18:37:28;;;;;;;6.65;2.92;;;3.20;1.00;;;;;;20559466;28;20053;-42
2023/02/07 18:47:33;;;;;;;9.57;4.43;;;2.90;1.00;;;;;;20555347;28;20042;-41
2023/02/07 18:57:34;;;;;;;6.80;3.28;;;2.70;1.00;;;;;;20558089;28;20108;-42
2023/02/07 19:07:35;;;;;;;7.57;5.13;;;2.70;1.40;;;;;;20556750;28;20039;-42
2023/02/07 19:17:36;;;;;;;5.93;3.40;;;2.40;6.10;;;;;;20553848;28;20042;-42
2023/02/07 19:27:37;;;;;;;9.65;4.38;;;2.40;7.00;;;;;;20549734;28;20042;-42
2023/02/07 19:37:38;;;;;;;9.98;4.70;;;2.30;8.70;;;;;;20543861;28;20051;-42
2023/02/07 19:47:40;;;;;;;9.18;4.25;;;2.30;7.30;;;;;;20562488;28;20232;-41
2023/02/07 19:57:41;;;;;;;9.73;5.28;;;2.20;9.20;;;;;;20546566;28;20042;-42
2023/02/07 20:07:42;;;;;;;9.20;5.45;;;2.00;13.50;;;;;;20544261;28;20528;-42
2023/02/07 20:17:43;;;;;;;5.78;3.67;;;2.10;18.30;;;;;;20552080;28;20074;-42
2023/02/07 20:27:44;;;;;;;7.57;5.07;;;2.20;20.50;;;;;;20555530;28;20406;-42
2023/02/07 20:37:45;;;;;;;6.55;4.60;;;2.20;15.80;;;;;;20546906;28;20050;-42
2023/02/07 20:47:46;;;;;;;7.57;3.92;;;2.10;14.20;;;;;;20558450;28;20206;-42
2023/02/07 20:57:47;;;;;;;9.65;5.25;;;1.80;12.90;;;;;;20564692;28;20053;-42
2023/02/07 21:07:48;;;;;;;11.25;6.35;;;1.50;19.10;;;;;;20544681;28;20038;-42
2023/02/07 21:17:49;;;;;;;14.80;5.75;;;1.50;25.70;;;;;;20564909;28;20054;-42
2023/02/07 21:27:50;;;;;;;9.80;5.53;;;1.30;24.70;;;;;;20555147;28;20394;-42
2023/02/07 21:37:51;;;;;;;8.45;4.65;;;1.30;24.50;;;;;;20565240;28;20113;-42
2023/02/07 21:47:52;;;;;;;9.20;4.78;;;1.20;22.90;;;;;;20552489;28;20046;-42
2023/02/07 21:57:53;;;;;;;9.77;5.13;;;1.10;25.80;;;;;;20555696;28;20062;-42
2023/02/07 22:07:55;;;;;;;9.18;5.22;;;1.00;28.20;;;;;;20575243;28;20042;-42
2023/02/07 22:17:56;;;;;;;12.77;5.03;;;1.00;30.20;;;;;;20562805;28;20049;-42
2023/02/07 22:27:57;;;;;;;9.10;4.97;;;0.80;32.90;;;;;;20559762;28;20042;-42
2023/02/07 22:37:58;;;;;;;8.65;5.47;;;0.80;34.60;;;;;;20559646;28;20053;-42
2023/02/07 22:47:59;;;;;;;6.38;4.70;;;0.80;32.90;;;;;;20561941;28;20042;-42
2023/02/07 22:58:00;;;;;;;11.68;5.45;;;0.60;36.90;;;;;;20562812;28;20057;-42
2023/02/07 23:08:01;;;;;;;8.50;5.63;;;0.70;43.00;;;;;;20563165;28;20380;-42
2023/02/07 23:18:03;;;;;;;10.70;4.65;;;0.70;37.90;;;;;;20558819;28;20113;-42
2023/02/07 23:28:04;;;;;;;12.88;5.35;;;0.70;42.80;;;;;;20556735;28;20509;-42
2023/02/07 23:38:05;;;;;;;8.57;4.75;;;0.60;37.80;;;;;;20558565;28;20315;-42
2023/02/07 23:48:06;;;;;;;12.52;6.10;;;0.50;33.30;;;;;;20554811;28;20058;-42
2023/02/07 23:58:07;;;;;;;15.07;5.65;;;0.40;36.60;;;;;;20555374;28;20519;-42
